sensor_id;sensor_type;location;lat;lon;timestamp;pressure;altitude;pressure_sealevel;temperature;humidity
20455;BME280;10386;54.314;10.022;2023-11-19T00:00:09;100959.13;;;5.60;100.00
20455;BME280;10386;54.314;10.022;2023-11-19T00:02:40;100952.81;;;5.61;100.00
20455;BME280;10386;54.314;10.022;2023-11-19T00:05:09;100938.59;;;5.58;100.00
20455;BME280;10386;54.314;10.022;2023-11-19T00:07:37;100918.53;;;5.46;100.00
20455;BME280;10386;54.314;10.022;2023-11-19T00:10:15;101014.16;;;5.55;100.00
20455;BME280;10386;54.314;10.022;2023-11-19T00:12:49;101020.69;;;5.49;100.00
20455;BME280;10386;54.314;10.022;2023-11-19T00:15:17;100997.94;;;5.56;100.00
20455;BME280;10386;54.314;10.022;2023-11-19T00:17:46;100993.50;;;5.55;100.00
20455;BME280;10386;54.314;10.022;2023-11-19T00:20:16;100984.38;;;5.58;100.00
20455;BME280;10386;54.314;10.022;2023-11-19T00:22:43;100978.28;;;5.54;100.00
20455;BME280;10386;54.314;10.022;2023-11-19T00:25:13;100971.06;;;5.55;100.00
20455;BME280;10386;54.314;10.022;2023-11-19T00:27:40;100962.50;;;5.47;100.00
20455;BME280;10386;54.314;10.022;2023-11-19T00:30:07;100948.66;;;5.54;100.00
20455;BME280;10386;54.314;10.022;2023-11-19T00:32:37;100929.00;;;5.52;100.00
20455;BME280;10386;54.314;10.022;2023-11-19T00:35:06;100918.75;;;5.60;100.00
20455;BME280;10386;54.314;10.022;2023-11-19T00:37:33;100910.66;;;5.60;100.00
20455;BME280;10386;54.314;10.022;2023-11-19T00:40:00;100905.50;;;5.56;100.00
20455;BME280;10386;54.314;10.022;2023-11-19T00:42:27;100900.56;;;5.47;100.00
20455;BME280;10386;54.314;10.022;2023-11-19T00:44:54;100887.75;;;5.52;100.00
20455;BME280;10386;54.314;10.022;2023-11-19T00:47:21;100876.84;;;5.55;100.00
20455;BME280;10386;54.314;10.022;2023-11-19T00:49:49;100868.59;;;5.58;100.00
20455;BME280;10386;54.314;10.022;2023-11-19T00:52:16;100857.91;;;5.56;100.00
20455;BME280;10386;54.314;10.022;2023-11-19T00:54:44;100854.34;;;5.56;100.00
20455;BME280;10386;54.314;10.022;2023-11-19T00:57:10;100845.09;;;5.61;100.00
20455;BME280;10386;54.314;10.022;2023-11-19T00:59:37;100842.16;;;5.66;100.00
20455;BME280;10386;54.314;10.022;2023-11-19T01:02:04;100825.94;;;5.67;100.00
20455;BME280;10386;54.314;10.022;2023-11-19T01:04:36;100820.59;;;5.66;100.00
20455;BME280;10386;54.314;10.022;2023-11-19T01:07:03;100804.84;;;5.75;100.00
20455;BME280;10386;54.314;10.022;2023-11-19T01:09:32;100803.66;;;5.64;100.00
20455;BME280;10386;54.314;10.022;2023-11-19T01:12:02;100787.97;;;5.72;100.00
20455;BME280;10386;54.314;10.022;2023-11-19T01:14:30;100782.41;;;5.75;100.00
20455;BME280;10386;54.314;10.022;2023-11-19T01:16:56;100761.66;;;5.77;100.00
20455;BME280;10386;54.314;10.022;2023-11-19T01:19:24;100756.59;;;5.71;100.00
20455;BME280;10386;54.314;10.022;2023-11-19T01:21:51;100739.50;;;5.72;100.00
20455;BME280;10386;54.314;10.022;2023-11-19T01:24:18;100737.53;;;5.75;100.00
20455;BME280;10386;54.314;10.022;2023-11-19T01:26:45;100719.69;;;5.73;100.00
20455;BME280;10386;54.314;10.022;2023-11-19T01:29:14;100716.03;;;5.74;100.00
20455;BME280;10386;54.314;10.022;2023-11-19T01:31:42;100709.41;;;5.81;100.00
20455;BME280;10386;54.314;10.022;2023-11-19T01:34:10;100690.66;;;5.79;100.00
20455;BME280;10386;54.314;10.022;2023-11-19T01:36:37;100691.28;;;5.84;100.00
20455;BME280;10386;54.314;10.022;2023-11-19T01:39:03;100667.19;;;5.81;100.00
20455;BME280;10386;54.314;10.022;2023-11-19T01:41:37;100680.72;;;5.80;100.00
20455;BME280;10386;54.314;10.022;2023-11-19T01:44:06;100683.53;;;5.78;100.00
20455;BME280;10386;54.314;10.022;2023-11-19T01:46:34;100673.13;;;5.71;100.00
20455;BME280;10386;54.314;10.022;2023-11-19T01:49:02;100667.03;;;5.84;100.00
20455;BME280;10386;54.314;10.022;2023-11-19T01:51:31;100658.47;;;5.76;100.00
20455;BME280;10386;54.314;10.022;2023-11-19T01:53:58;100665.59;;;5.77;100.00
20455;BME280;10386;54.314;10.022;2023-11-19T01:56:26;100666.31;;;5.81;100.00
20455;BME280;10386;54.314;10.022;2023-11-19T01:58:54;100674.16;;;5.85;100.00
20455;BME280;10386;54.314;10.022;2023-11-19T02:01:22;100653.47;;;5.86;100.00
20455;BME280;10386;54.314;10.022;2023-11-19T02:03:51;100648.25;;;5.83;100.00
20455;BME280;10386;54.314;10.022;2023-11-19T02:06:18;100650.94;;;5.83;100.00
20455;BME280;10386;54.314;10.022;2023-11-19T02:08:45;100645.66;;;5.81;100.00
20455;BME280;10386;54.314;10.022;2023-11-19T02:11:12;100606.72;;;5.87;100.00
20455;BME280;10386;54.314;10.022;2023-11-19T02:13:39;100604.28;;;5.82;100.00
20455;BME280;10386;54.314;10.022;2023-11-19T02:16:08;100602.47;;;5.83;100.00
20455;BME280;10386;54.314;10.022;2023-11-19T02:18:37;100598.72;;;5.85;100.00
20455;BME280;10386;54.314;10.022;2023-11-19T02:21:05;100587.34;;;5.80;100.00
20455;BME280;10386;54.314;10.022;2023-11-19T02:23:32;100564.56;;;5.86;100.00
20455;BME280;10386;54.314;10.022;2023-11-19T02:26:03;100559.34;;;5.83;100.00
20455;BME280;10386;54.314;10.022;2023-11-19T02:28:36;100547.09;;;5.77;100.00
20455;BME280;10386;54.314;10.022;2023-11-19T02:31:04;100545.47;;;5.90;100.00
20455;BME280;10386;54.314;10.022;2023-11-19T02:33:37;100526.50;;;5.76;100.00
20455;BME280;10386;54.314;10.022;2023-11-19T02:36:05;100503.69;;;5.83;100.00
20455;BME280;10386;54.314;10.022;2023-11-19T02:38:34;100476.03;;;5.80;100.00
20455;BME280;10386;54.314;10.022;2023-11-19T02:41:06;100471.44;;;5.82;100.00
20455;BME280;10386;54.314;10.022;2023-11-19T02:43:34;100465.25;;;5.80;100.00
20455;BME280;10386;54.314;10.022;2023-11-19T02:46:04;100445.28;;;5.84;100.00
20455;BME280;10386;54.314;10.022;2023-11-19T02:48:37;100433.91;;;5.79;100.00
20455;BME280;10386;54.314;10.022;2023-11-19T02:51:04;100417.03;;;5.91;100.00
20455;BME280;10386;54.314;10.022;2023-11-19T02:53:31;100406.63;;;5.85;100.00
20455;BME280;10386;54.314;10.022;2023-11-19T02:55:58;100394.81;;;5.87;100.00
20455;BME280;10386;54.314;10.022;2023-11-19T02:58:33;100401.34;;;5.83;100.00
20455;BME280;10386;54.314;10.022;2023-11-19T03:01:01;100378.66;;;5.87;100.00
20455;BME280;10386;54.314;10.022;2023-11-19T03:03:37;100379.41;;;5.89;100.00
20455;BME280;10386;54.314;10.022;2023-11-19T03:06:07;100383.44;;;5.82;100.00
20455;BME280;10386;54.314;10.022;2023-11-19T03:08:36;100369.19;;;5.80;100.00
20455;BME280;10386;54.314;10.022;2023-11-19T03:11:03;100368.06;;;5.84;100.00
20455;BME280;10386;54.314;10.022;2023-11-19T03:13:31;100375.94;;;5.87;100.00
20455;BME280;10386;54.314;10.022;2023-11-19T03:15:58;100373.34;;;5.86;100.00
20455;BME280;10386;54.314;10.022;2023-11-19T03:18:25;100379.22;;;5.92;100.00
20455;BME280;10386;54.314;10.022;2023-11-19T03:20:52;100373.16;;;5.89;100.00
20455;BME280;10386;54.314;10.022;2023-11-19T03:23:19;100345.63;;;5.84;100.00
20455;BME280;10386;54.314;10.022;2023-11-19T03:25:45;100322.84;;;5.89;100.00
20455;BME280;10386;54.314;10.022;2023-11-19T03:28:13;100325.44;;;5.91;100.00
20455;BME280;10386;54.314;10.022;2023-11-19T03:30:40;100311.13;;;5.90;100.00
20455;BME280;10386;54.314;10.022;2023-11-19T03:33:06;100288.03;;;5.86;100.00
20455;BME280;10386;54.314;10.022;2023-11-19T03:35:33;100261.28;;;5.83;100.00
20455;BME280;10386;54.314;10.022;2023-11-19T03:38:00;100256.75;;;5.84;100.00
20455;BME280;10386;54.314;10.022;2023-11-19T03:40:28;100250.50;;;5.83;100.00
20455;BME280;10386;54.314;10.022;2023-11-19T03:42:58;100251.16;;;5.87;100.00
20455;BME280;10386;54.314;10.022;2023-11-19T03:45:25;100240.59;;;5.84;100.00
20455;BME280;10386;54.314;10.022;2023-11-19T03:47:52;100251.94;;;5.89;100.00
20455;BME280;10386;54.314;10.022;2023-11-19T03:50:19;100245.25;;;5.96;100.00
20455;BME280;10386;54.314;10.022;2023-11-19T03:52:47;100240.06;;;5.77;100.00
20455;BME280;10386;54.314;10.022;2023-11-19T03:55:14;100233.38;;;5.84;100.00
20455;BME280;10386;54.314;10.022;2023-11-19T03:57:41;100225.50;;;5.95;100.00
20455;BME280;10386;54.314;10.022;2023-11-19T04:00:08;100209.63;;;5.91;100.00
20455;BME280;10386;54.314;10.022;2023-11-19T04:02:41;100202.03;;;5.97;100.00
20455;BME280;10386;54.314;10.022;2023-11-19T04:05:08;100196.38;;;6.02;100.00
20455;BME280;10386;54.314;10.022;2023-11-19T04:07:36;100177.72;;;5.99;100.00
20455;BME280;10386;54.314;10.022;2023-11-19T04:10:04;100188.56;;;5.97;100.00
20455;BME280;10386;54.314;10.022;2023-11-19T04:12:31;100176.75;;;6.00;100.00
20455;BME280;10386;54.314;10.022;2023-11-19T04:14:58;100169.50;;;6.00;100.00
20455;BME280;10386;54.314;10.022;2023-11-19T04:17:27;100152.97;;;5.92;100.00
20455;BME280;10386;54.314;10.022;2023-11-19T04:19:55;100154.22;;;6.01;100.00
20455;BME280;10386;54.314;10.022;2023-11-19T04:22:22;100147.00;;;6.01;100.00
20455;BME280;10386;54.314;10.022;2023-11-19T04:24:49;100136.22;;;6.01;100.00
20455;BME280;10386;54.314;10.022;2023-11-19T04:27:16;100134.50;;;6.00;100.00
20455;BME280;10386;54.314;10.022;2023-11-19T04:29:43;100123.44;;;6.05;100.00
20455;BME280;10386;54.314;10.022;2023-11-19T04:32:09;100118.69;;;6.08;100.00
20455;BME280;10386;54.314;10.022;2023-11-19T04:34:36;100117.09;;;6.06;100.00
20455;BME280;10386;54.314;10.022;2023-11-19T04:37:04;100112.06;;;6.14;100.00
20455;BME280;10386;54.314;10.022;2023-11-19T04:39:33;100106.50;;;6.03;100.00
20455;BME280;10386;54.314;10.022;2023-11-19T04:42:00;100095.16;;;5.98;100.00
20455;BME280;10386;54.314;10.022;2023-11-19T04:44:27;100073.97;;;6.06;100.00
20455;BME280;10386;54.314;10.022;2023-11-19T04:46:56;100063.28;;;6.04;100.00
20455;BME280;10386;54.314;10.022;2023-11-19T04:49:23;100072.91;;;6.08;100.00
20455;BME280;10386;54.314;10.022;2023-11-19T04:51:49;100081.84;;;6.09;100.00
20455;BME280;10386;54.314;10.022;2023-11-19T04:54:17;100075.09;;;6.16;100.00
20455;BME280;10386;54.314;10.022;2023-11-19T04:56:45;100063.38;;;6.17;100.00
20455;BME280;10386;54.314;10.022;2023-11-19T04:59:13;100044.03;;;6.10;100.00
20455;BME280;10386;54.314;10.022;2023-11-19T05:01:40;100047.00;;;6.20;100.00
20455;BME280;10386;54.314;10.022;2023-11-19T05:04:07;100044.69;;;6.14;100.00
20455;BME280;10386;54.314;10.022;2023-11-19T05:06:34;100043.63;;;6.16;100.00
20455;BME280;10386;54.314;10.022;2023-11-19T05:09:02;100046.13;;;6.19;100.00
20455;BME280;10386;54.314;10.022;2023-11-19T05:11:35;100044.69;;;6.14;100.00
20455;BME280;10386;54.314;10.022;2023-11-19T05:14:02;99953.72;;;6.17;100.00
20455;BME280;10386;54.314;10.022;2023-11-19T05:16:32;99952.25;;;6.26;100.00
20455;BME280;10386;54.314;10.022;2023-11-19T05:18:59;99943.84;;;6.30;100.00
20455;BME280;10386;54.314;10.022;2023-11-19T05:21:26;99956.81;;;6.38;100.00
20455;BME280;10386;54.314;10.022;2023-11-19T05:23:53;99952.31;;;6.51;100.00
20455;BME280;10386;54.314;10.022;2023-11-19T05:26:22;99939.38;;;6.43;100.00
20455;BME280;10386;54.314;10.022;2023-11-19T05:28:50;99911.03;;;6.50;100.00
20455;BME280;10386;54.314;10.022;2023-11-19T05:31:17;99934.00;;;6.43;100.00
20455;BME280;10386;54.314;10.022;2023-11-19T05:33:44;99908.00;;;6.55;100.00
20455;BME280;10386;54.314;10.022;2023-11-19T05:36:12;99912.66;;;6.65;100.00
20455;BME280;10386;54.314;10.022;2023-11-19T05:38:41;99906.16;;;6.68;100.00
20455;BME280;10386;54.314;10.022;2023-11-19T05:41:08;99900.25;;;6.75;100.00
20455;BME280;10386;54.314;10.022;2023-11-19T05:43:35;99901.66;;;6.81;100.00
20455;BME280;10386;54.314;10.022;2023-11-19T05:46:02;99887.81;;;6.73;100.00
20455;BME280;10386;54.314;10.022;2023-11-19T05:48:29;99883.31;;;6.85;100.00
20455;BME280;10386;54.314;10.022;2023-11-19T05:50:56;99884.28;;;6.84;100.00
20455;BME280;10386;54.314;10.022;2023-11-19T05:53:23;99883.31;;;6.73;100.00
20455;BME280;10386;54.314;10.022;2023-11-19T05:55:51;99868.84;;;6.86;100.00
20455;BME280;10386;54.314;10.022;2023-11-19T05:58:24;99863.13;;;6.91;100.00
20455;BME280;10386;54.314;10.022;2023-11-19T06:00:56;99869.91;;;6.96;100.00
20455;BME280;10386;54.314;10.022;2023-11-19T06:03:23;99857.19;;;6.98;100.00
20455;BME280;10386;54.314;10.022;2023-11-19T06:05:50;99868.41;;;6.92;100.00
20455;BME280;10386;54.314;10.022;2023-11-19T06:08:17;99845.28;;;7.13;100.00
20455;BME280;10386;54.314;10.022;2023-11-19T06:10:44;99845.28;;;7.13;100.00
20455;BME280;10386;54.314;10.022;2023-11-19T06:13:16;99847.75;;;7.16;100.00
20455;BME280;10386;54.314;10.022;2023-11-19T06:15:43;99835.00;;;7.18;100.00
20455;BME280;10386;54.314;10.022;2023-11-19T06:18:10;99834.13;;;7.18;100.00
20455;BME280;10386;54.314;10.022;2023-11-19T06:20:39;99827.19;;;7.26;100.00
20455;BME280;10386;54.314;10.022;2023-11-19T06:23:08;99819.00;;;7.28;100.00
20455;BME280;10386;54.314;10.022;2023-11-19T06:25:35;99815.25;;;7.41;100.00
20455;BME280;10386;54.314;10.022;2023-11-19T06:28:03;99830.19;;;7.34;100.00
20455;BME280;10386;54.314;10.022;2023-11-19T06:30:30;99822.91;;;7.47;100.00
20455;BME280;10386;54.314;10.022;2023-11-19T06:32:59;99820.50;;;7.55;100.00
20455;BME280;10386;54.314;10.022;2023-11-19T06:35:26;99815.09;;;7.55;100.00
20455;BME280;10386;54.314;10.022;2023-11-19T06:37:55;99815.91;;;7.68;100.00
20455;BME280;10386;54.314;10.022;2023-11-19T06:40:22;99814.34;;;7.53;100.00
20455;BME280;10386;54.314;10.022;2023-11-19T06:42:49;99808.88;;;7.42;100.00
20455;BME280;10386;54.314;10.022;2023-11-19T06:45:16;99810.28;;;7.48;100.00
20455;BME280;10386;54.314;10.022;2023-11-19T06:47:43;99813.88;;;7.59;100.00
20455;BME280;10386;54.314;10.022;2023-11-19T06:50:09;99811.69;;;7.64;100.00
20455;BME280;10386;54.314;10.022;2023-11-19T06:52:36;99805.53;;;7.62;100.00
20455;BME280;10386;54.314;10.022;2023-11-19T06:55:04;99798.72;;;7.69;100.00
20455;BME280;10386;54.314;10.022;2023-11-19T06:57:35;99797.28;;;7.76;100.00
20455;BME280;10386;54.314;10.022;2023-11-19T07:00:02;99463.19;;;7.77;100.00
20455;BME280;10386;54.314;10.022;2023-11-19T07:02:29;99458.91;;;7.74;100.00
20455;BME280;10386;54.314;10.022;2023-11-19T07:04:56;99456.31;;;7.73;100.00
20455;BME280;10386;54.314;10.022;2023-11-19T07:07:23;99429.91;;;7.76;100.00
20455;BME280;10386;54.314;10.022;2023-11-19T07:09:50;99422.81;;;7.75;100.00
20455;BME280;10386;54.314;10.022;2023-11-19T07:12:16;99422.56;;;7.78;100.00
20455;BME280;10386;54.314;10.022;2023-11-19T07:14:43;99411.09;;;7.86;100.00
20455;BME280;10386;54.314;10.022;2023-11-19T07:17:10;99414.44;;;7.78;100.00
20455;BME280;10386;54.314;10.022;2023-11-19T07:19:37;99416.03;;;7.81;100.00
20455;BME280;10386;54.314;10.022;2023-11-19T07:22:05;99415.66;;;7.85;100.00
20455;BME280;10386;54.314;10.022;2023-11-19T07:24:33;99409.34;;;7.96;100.00
20455;BME280;10386;54.314;10.022;2023-11-19T07:27:00;99401.72;;;8.01;100.00
20455;BME280;10386;54.314;10.022;2023-11-19T07:29:27;99405.03;;;8.04;100.00
20455;BME280;10386;54.314;10.022;2023-11-19T07:31:55;99396.66;;;8.07;100.00
20455;BME280;10386;54.314;10.022;2023-11-19T07:34:24;99399.34;;;8.18;100.00
20455;BME280;10386;54.314;10.022;2023-11-19T07:36:51;99393.78;;;8.30;100.00
20455;BME280;10386;54.314;10.022;2023-11-19T07:39:19;99378.28;;;8.32;100.00
20455;BME280;10386;54.314;10.022;2023-11-19T07:41:47;99376.84;;;8.49;100.00
20455;BME280;10386;54.314;10.022;2023-11-19T07:44:14;99366.69;;;8.62;100.00
20455;BME280;10386;54.314;10.022;2023-11-19T07:46:41;99369.53;;;8.60;100.00
20455;BME280;10386;54.314;10.022;2023-11-19T07:49:09;99355.38;;;8.77;100.00
20455;BME280;10386;54.314;10.022;2023-11-19T07:51:36;99347.78;;;8.92;100.00
20455;BME280;10386;54.314;10.022;2023-11-19T07:54:03;99338.63;;;9.13;100.00
20455;BME280;10386;54.314;10.022;2023-11-19T07:56:32;99330.28;;;9.35;100.00
20455;BME280;10386;54.314;10.022;2023-11-19T07:59:02;99324.09;;;9.63;100.00
20455;BME280;10386;54.314;10.022;2023-11-19T08:01:28;99304.44;;;9.89;100.00
20455;BME280;10386;54.314;10.022;2023-11-19T08:03:55;99290.63;;;10.11;100.00
20455;BME280;10386;54.314;10.022;2023-11-19T08:06:25;99016.81;;;10.38;100.00
20455;BME280;10386;54.314;10.022;2023-11-19T08:08:52;99002.47;;;10.46;100.00
20455;BME280;10386;54.314;10.022;2023-11-19T08:11:19;98994.28;;;10.55;100.00
20455;BME280;10386;54.314;10.022;2023-11-19T08:13:47;98987.78;;;10.66;100.00
20455;BME280;10386;54.314;10.022;2023-11-19T08:16:14;98977.63;;;10.68;100.00
20455;BME280;10386;54.314;10.022;2023-11-19T08:18:43;98972.03;;;10.69;100.00
20455;BME280;10386;54.314;10.022;2023-11-19T08:21:10;98957.13;;;10.73;100.00
20455;BME280;10386;54.314;10.022;2023-11-19T08:23:37;98952.09;;;10.78;100.00
20455;BME280;10386;54.314;10.022;2023-11-19T08:26:05;98957.00;;;10.75;100.00
20455;BME280;10386;54.314;10.022;2023-11-19T08:28:32;98948.84;;;10.75;100.00
20455;BME280;10386;54.314;10.022;2023-11-19T08:31:01;98936.19;;;10.83;100.00
20455;BME280;10386;54.314;10.022;2023-11-19T08:33:31;98940.09;;;10.81;100.00
20455;BME280;10386;54.314;10.022;2023-11-19T08:35:58;98933.16;;;10.86;100.00
20455;BME280;10386;54.314;10.022;2023-11-19T08:38:25;98924.19;;;10.86;100.00
20455;BME280;10386;54.314;10.022;2023-11-19T08:40:55;98934.88;;;10.87;100.00
20455;BME280;10386;54.314;10.022;2023-11-19T08:43:27;98927.28;;;10.91;100.00
20455;BME280;10386;54.314;10.022;2023-11-19T08:45:53;98927.72;;;10.86;100.00
20455;BME280;10386;54.314;10.022;2023-11-19T08:48:20;98928.81;;;10.93;100.00
20455;BME280;10386;54.314;10.022;2023-11-19T08:50:47;98921.53;;;10.94;100.00
20455;BME280;10386;54.314;10.022;2023-11-19T08:53:14;98926.78;;;10.95;100.00
20455;BME280;10386;54.314;10.022;2023-11-19T08:55:42;98911.88;;;10.99;100.00
20455;BME280;10386;54.314;10.022;2023-11-19T08:58:09;98921.91;;;10.98;100.00
20455;BME280;10386;54.314;10.022;2023-11-19T09:00:36;98926.56;;;11.06;100.00
20455;BME280;10386;54.314;10.022;2023-11-19T09:03:03;98917.50;;;10.98;100.00
20455;BME280;10386;54.314;10.022;2023-11-19T09:05:30;98917.31;;;10.99;100.00
20455;BME280;10386;54.314;10.022;2023-11-19T09:08:00;98924.69;;;11.06;100.00
20455;BME280;10386;54.314;10.022;2023-11-19T09:10:26;98937.63;;;11.12;100.00
20455;BME280;10386;54.314;10.022;2023-11-19T09:12:55;98931.66;;;11.09;100.00
20455;BME280;10386;54.314;10.022;2023-11-19T09:15:24;98926.06;;;11.10;100.00
20455;BME280;10386;54.314;10.022;2023-11-19T09:17:51;98931.66;;;11.09;100.00
20455;BME280;10386;54.314;10.022;2023-11-19T09:20:18;98930.88;;;11.16;100.00
20455;BME280;10386;54.314;10.022;2023-11-19T09:22:45;98938.63;;;11.11;100.00
20455;BME280;10386;54.314;10.022;2023-11-19T09:25:12;98939.81;;;11.09;100.00
20455;BME280;10386;54.314;10.022;2023-11-19T09:27:44;98953.47;;;11.17;100.00
20455;BME280;10386;54.314;10.022;2023-11-19T09:30:11;98946.53;;;11.22;100.00
20455;BME280;10386;54.314;10.022;2023-11-19T09:32:39;98945.50;;;11.23;100.00
20455;BME280;10386;54.314;10.022;2023-11-19T09:35:07;98953.50;;;11.25;100.00
20455;BME280;10386;54.314;10.022;2023-11-19T09:37:35;98935.72;;;11.30;100.00
20455;BME280;10386;54.314;10.022;2023-11-19T09:40:01;98942.84;;;11.31;100.00
20455;BME280;10386;54.314;10.022;2023-11-19T09:42:29;98941.50;;;11.35;100.00
20455;BME280;10386;54.314;10.022;2023-11-19T09:44:59;98950.34;;;11.37;100.00
20455;BME280;10386;54.314;10.022;2023-11-19T09:47:26;98946.84;;;11.45;100.00
20455;BME280;10386;54.314;10.022;2023-11-19T09:49:54;98953.63;;;11.41;100.00
20455;BME280;10386;54.314;10.022;2023-11-19T09:52:24;98961.22;;;11.37;100.00
20455;BME280;10386;54.314;10.022;2023-11-19T09:54:51;98951.28;;;11.46;100.00
20455;BME280;10386;54.314;10.022;2023-11-19T09:57:18;98960.25;;;11.46;100.00
20455;BME280;10386;54.314;10.022;2023-11-19T09:59:46;98970.00;;;11.31;100.00
20455;BME280;10386;54.314;10.022;2023-11-19T10:02:14;98979.50;;;11.27;100.00
20455;BME280;10386;54.314;10.022;2023-11-19T10:04:42;98977.97;;;11.25;100.00
20455;BME280;10386;54.314;10.022;2023-11-19T10:07:11;98975.94;;;11.27;100.00
20455;BME280;10386;54.314;10.022;2023-11-19T10:09:37;98982.84;;;11.21;100.00
20455;BME280;10386;54.314;10.022;2023-11-19T10:12:04;98974.59;;;11.31;100.00
20455;BME280;10386;54.314;10.022;2023-11-19T10:14:31;98975.94;;;11.27;100.00
20455;BME280;10386;54.314;10.022;2023-11-19T10:17:01;98993.56;;;11.23;100.00
20455;BME280;10386;54.314;10.022;2023-11-19T10:19:31;98983.59;;;11.31;100.00
20455;BME280;10386;54.314;10.022;2023-11-19T10:22:03;98989.50;;;11.27;100.00
20455;BME280;10386;54.314;10.022;2023-11-19T10:24:33;98994.56;;;11.22;100.00
20455;BME280;10386;54.314;10.022;2023-11-19T10:27:07;98990.72;;;11.32;100.00
20455;BME280;10386;54.314;10.022;2023-11-19T10:29:38;98995.53;;;11.38;100.00
20455;BME280;10386;54.314;10.022;2023-11-19T10:32:05;99007.41;;;11.37;100.00
20455;BME280;10386;54.314;10.022;2023-11-19T10:34:52;99002.53;;;11.41;100.00
20455;BME280;10386;54.314;10.022;2023-11-19T10:37:30;98999.06;;;11.31;100.00
20455;BME280;10386;54.314;10.022;2023-11-19T10:39:59;99012.25;;;11.26;100.00
20455;BME280;10386;54.314;10.022;2023-11-19T10:42:26;99011.63;;;11.32;100.00
20455;BME280;10386;54.314;10.022;2023-11-19T10:44:52;99016.25;;;11.39;100.00
20455;BME280;10386;54.314;10.022;2023-11-19T10:47:19;99016.16;;;11.49;100.00
20455;BME280;10386;54.314;10.022;2023-11-19T10:50:04;99022.28;;;11.51;100.00
20455;BME280;10386;54.314;10.022;2023-11-19T10:52:32;99022.47;;;11.49;100.00
20455;BME280;10386;54.314;10.022;2023-11-19T10:55:00;99022.28;;;11.51;100.00
20455;BME280;10386;54.314;10.022;2023-11-19T10:57:30;99025.31;;;11.48;100.00
20455;BME280;10386;54.314;10.022;2023-11-19T11:00:01;99035.19;;;11.49;100.00
20455;BME280;10386;54.314;10.022;2023-11-19T11:02:30;99024.09;;;11.60;100.00
20455;BME280;10386;54.314;10.022;2023-11-19T11:05:02;99019.16;;;11.89;100.00
20455;BME280;10386;54.314;10.022;2023-11-19T11:07:31;99025.03;;;12.02;100.00
20455;BME280;10386;54.314;10.022;2023-11-19T11:10:07;99029.91;;;11.90;100.00
20455;BME280;10386;54.314;10.022;2023-11-19T11:12:37;99039.38;;;11.86;100.00
20455;BME280;10386;54.314;10.022;2023-11-19T11:15:11;99052.06;;;11.78;100.00
20455;BME280;10386;54.314;10.022;2023-11-19T11:17:43;99067.63;;;11.68;100.00
20455;BME280;10386;54.314;10.022;2023-11-19T11:20:11;99074.00;;;11.59;100.00
20455;BME280;10386;54.314;10.022;2023-11-19T11:34:47;99109.28;;;11.68;100.00
20455;BME280;10386;54.314;10.022;2023-11-19T11:39:52;99122.31;;;11.65;100.00
20455;BME280;10386;54.314;10.022;2023-11-19T11:45:08;99126.66;;;11.75;100.00
20455;BME280;10386;54.314;10.022;2023-11-19T11:50:23;99129.63;;;11.90;100.00
20455;BME280;10386;54.314;10.022;2023-11-19T11:57:59;99145.66;;;11.93;100.00
20455;BME280;10386;54.314;10.022;2023-11-19T12:00:29;99152.03;;;11.84;100.00
20455;BME280;10386;54.314;10.022;2023-11-19T12:02:59;99164.47;;;11.69;100.00
20455;BME280;10386;54.314;10.022;2023-11-19T12:05:26;99177.53;;;11.65;100.00
20455;BME280;10386;54.314;10.022;2023-11-19T12:08:01;99181.31;;;11.55;100.00
20455;BME280;10386;54.314;10.022;2023-11-19T12:10:31;99191.88;;;11.58;100.00
20455;BME280;10386;54.314;10.022;2023-11-19T12:12:59;99197.63;;;11.55;100.00
20455;BME280;10386;54.314;10.022;2023-11-19T12:15:28;99199.72;;;11.61;100.00
20455;BME280;10386;54.314;10.022;2023-11-19T12:17:55;99207.03;;;11.60;100.00
20455;BME280;10386;54.314;10.022;2023-11-19T12:20:23;99211.09;;;11.56;100.00
20455;BME280;10386;54.314;10.022;2023-11-19T12:22:53;99214.81;;;11.55;100.00
20455;BME280;10386;54.314;10.022;2023-11-19T12:25:20;99213.94;;;11.55;100.00
20455;BME280;10386;54.314;10.022;2023-11-19T12:27:52;99219.00;;;11.67;100.00
20455;BME280;10386;54.314;10.022;2023-11-19T12:30:23;99226.78;;;11.53;100.00
20455;BME280;10386;54.314;10.022;2023-11-19T12:32:52;99229.81;;;11.50;100.00
20455;BME280;10386;54.314;10.022;2023-11-19T12:35:20;99230.53;;;11.52;100.00
20455;BME280;10386;54.314;10.022;2023-11-19T12:37:49;99240.09;;;11.56;100.00
20455;BME280;10386;54.314;10.022;2023-11-19T12:40:24;99234.53;;;11.57;100.00
20455;BME280;10386;54.314;10.022;2023-11-19T12:42:52;99241.81;;;11.57;100.00
20455;BME280;10386;54.314;10.022;2023-11-19T12:45:20;99247.44;;;11.46;100.00
20455;BME280;10386;54.314;10.022;2023-11-19T12:47:50;99252.56;;;11.49;100.00
20455;BME280;10386;54.314;10.022;2023-11-19T12:50:19;99252.25;;;11.52;100.00
20455;BME280;10386;54.314;10.022;2023-11-19T12:52:57;99255.41;;;11.47;100.00
20455;BME280;10386;54.314;10.022;2023-11-19T12:55:29;99262.13;;;11.53;100.00
20455;BME280;10386;54.314;10.022;2023-11-19T12:57:57;99256.50;;;11.64;100.00
20455;BME280;10386;54.314;10.022;2023-11-19T13:00:26;99242.22;;;11.62;100.00
20455;BME280;10386;54.314;10.022;2023-11-19T13:02:55;99259.53;;;11.61;100.00
20455;BME280;10386;54.314;10.022;2023-11-19T13:05:34;99261.94;;;11.64;100.00
20455;BME280;10386;54.314;10.022;2023-11-19T13:08:08;99262.09;;;11.62;100.00
20455;BME280;10386;54.314;10.022;2023-11-19T13:10:52;99263.41;;;11.58;100.00
20455;BME280;10386;54.314;10.022;2023-11-19T13:13:20;99274.16;;;11.50;100.00